Weather at Malda Airport

Public forecast

Using degrees Celsius for public forecast. Weather courtesy of forecast.io.

Closest aviation weather report (METAR) to Malda Airport

Report is more than 6 hours old.

Closest report is Bagdogra Airport, 99.5 nm (184.3 km) N. Retrieved 2020/11/02 05:30 UTC (29 days ago):

VEBD 020530Z VRB01KT 6000 -RA SCT025 FEW030TCU BKN080 25/24 Q1014 NOSIG

Closest aviation forecast (TAF) to Malda Airport

Forecast is more than 6 hours old.

Closest forecast is Bagdogra Airport, 99.5 nm (184.3 km) N. Retrieved 2020/11/30 12:30 UTC (7 hours ago):

TAF VEBD 300930Z 3012/3024 VRB02KTS 6000 FEW030 BECMG 3016/3020 5000 BR NSC BECMG 3020/3024 3000 BR